createdAt,value
2019-04-03T00:00:58.518Z,37.32
2019-04-03T00:02:02.649Z,37.41
2019-04-03T00:03:07.062Z,37.51
2019-04-03T00:04:10.503Z,37.68
2019-04-03T00:05:14.002Z,37.79
2019-04-03T00:06:17.431Z,37.84
2019-04-03T00:07:20.865Z,37.79
2019-04-03T00:08:25.149Z,37.87
2019-04-03T00:09:28.578Z,37.94
2019-04-03T00:10:32.069Z,37.97
2019-04-03T00:11:35.870Z,38.00
2019-04-03T00:12:40.989Z,38.04
2019-04-03T00:13:44.698Z,38.02
2019-04-03T00:14:48.125Z,38.07
2019-04-03T00:15:51.619Z,38.05
2019-04-03T00:16:55.132Z,38.15
2019-04-03T00:17:58.552Z,38.22
2019-04-03T00:19:02.067Z,38.27
2019-04-03T00:20:09.977Z,38.31
2019-04-03T00:21:13.398Z,38.27
2019-04-03T00:22:16.822Z,38.27
2019-04-03T00:23:20.628Z,38.31
2019-04-03T00:24:25.423Z,38.38
2019-04-03T00:25:28.940Z,38.31
2019-04-03T00:26:32.359Z,38.29
2019-04-03T00:27:35.855Z,38.31
2019-04-03T00:28:39.376Z,38.35
2019-04-03T00:29:42.806Z,38.42
2019-04-03T00:30:46.419Z,38.39
2019-04-03T00:31:49.842Z,38.45
2019-04-03T00:32:54.017Z,38.48
2019-04-03T00:33:57.641Z,38.53
2019-04-03T00:35:01.066Z,38.55
2019-04-03T00:36:04.572Z,38.52
2019-04-03T00:37:07.996Z,38.60
2019-04-03T00:38:11.418Z,38.60
2019-04-03T00:39:14.868Z,38.62
2019-04-03T00:40:18.291Z,38.78
2019-04-03T00:41:22.712Z,38.71
2019-04-03T00:42:26.883Z,38.70
2019-04-03T00:43:30.304Z,38.77
2019-04-03T00:44:33.757Z,38.95
2019-04-03T00:45:37.189Z,39.00
2019-04-03T00:46:40.618Z,39.26
2019-04-03T00:47:44.082Z,39.35
2019-04-03T00:48:47.537Z,39.42
2019-04-03T00:49:50.959Z,39.47
2019-04-03T00:50:56.369Z,39.43
2019-04-03T00:51:59.552Z,39.38
2019-04-03T00:53:03.085Z,39.40
2019-04-03T00:54:06.527Z,39.38
2019-04-03T00:55:10.111Z,39.43
2019-04-03T00:56:13.578Z,39.64
2019-04-03T00:57:17.013Z,39.88
2019-04-03T00:58:38.553Z,39.96
2019-04-03T00:59:42.007Z,39.83
2019-04-03T01:00:45.446Z,39.74
2019-04-03T01:01:48.945Z,39.73
2019-04-03T01:02:52.441Z,39.83
2019-04-03T01:03:56.847Z,39.82
2019-04-03T01:05:01.059Z,39.92
2019-04-03T01:06:04.815Z,39.97
2019-04-03T01:07:08.242Z,40.12
2019-04-03T01:08:11.725Z,40.27
2019-04-03T01:09:15.114Z,40.21
2019-04-03T01:10:18.635Z,40.28
2019-04-03T01:11:22.082Z,40.24
2019-04-03T01:12:25.519Z,40.21
2019-04-03T01:13:30.988Z,40.15
2019-04-03T01:14:34.094Z,40.13
2019-04-03T01:15:37.661Z,40.04
2019-04-03T01:16:41.065Z,39.95
2019-04-03T01:17:44.495Z,39.86
2019-04-03T01:18:47.922Z,39.85
2019-04-03T01:19:51.349Z,39.77
2019-04-03T01:20:54.874Z,39.76
2019-04-03T01:21:58.300Z,39.79
2019-04-03T01:23:01.762Z,39.84
2019-04-03T01:24:07.486Z,39.84
2019-04-03T01:25:10.630Z,40.00
2019-04-03T01:26:14.153Z,40.30
2019-04-03T01:27:17.579Z,40.43
2019-04-03T01:28:21.010Z,40.51
2019-04-03T01:29:24.508Z,40.51
2019-04-03T01:30:27.939Z,40.56
2019-04-03T01:31:31.581Z,40.70
2019-04-03T01:32:34.991Z,40.65
2019-04-03T01:33:38.430Z,40.71
2019-04-03T01:34:41.865Z,40.82
2019-04-03T01:35:47.132Z,40.94
2019-04-03T01:36:50.545Z,40.70
2019-04-03T01:37:53.991Z,40.73
2019-04-03T01:38:57.430Z,40.76
2019-04-03T01:40:00.866Z,40.83
2019-04-03T01:41:04.368Z,40.77
2019-04-03T01:42:07.870Z,40.67
2019-04-03T01:43:11.310Z,40.55
2019-04-03T01:44:14.745Z,40.52
2019-04-03T01:45:18.178Z,40.44
2019-04-03T01:46:21.607Z,40.39
2019-04-03T01:47:27.514Z,40.38
2019-04-03T01:48:30.238Z,40.73
2019-04-03T01:49:33.648Z,40.81
2019-04-03T01:50:37.083Z,40.87
2019-04-03T01:51:40.514Z,40.86
2019-04-03T01:52:43.970Z,40.90
2019-04-03T01:53:47.407Z,41.01
2019-04-03T01:54:50.831Z,41.00
2019-04-03T01:55:54.341Z,41.11
2019-04-03T01:56:58.018Z,41.23
2019-04-03T01:58:01.477Z,41.33
2019-04-03T01:59:06.583Z,41.38
2019-04-03T02:00:10.367Z,41.61
2019-04-03T02:01:13.800Z,41.62
2019-04-03T02:02:17.239Z,41.47
2019-04-03T02:03:20.823Z,41.56
2019-04-03T02:04:24.373Z,41.56
2019-04-03T02:05:27.843Z,41.49
2019-04-03T02:06:31.277Z,41.54
2019-04-03T02:07:34.703Z,41.62
2019-04-03T02:08:38.228Z,41.65
2019-04-03T02:09:41.727Z,41.68
2019-04-03T02:10:45.199Z,41.73
2019-04-03T02:11:49.317Z,41.77
2019-04-03T02:12:53.206Z,41.88
2019-04-03T02:13:56.791Z,41.84
2019-04-03T02:15:00.187Z,41.88
2019-04-03T02:16:03.746Z,41.94
2019-04-03T02:17:07.195Z,42.02
2019-04-03T02:18:10.670Z,42.03
2019-04-03T02:19:14.259Z,42.12
2019-04-03T02:20:17.817Z,42.20
2019-04-03T02:21:21.247Z,42.13
2019-04-03T02:22:25.247Z,42.21
2019-04-03T02:23:30.341Z,42.17
2019-04-03T02:24:33.851Z,42.05
2019-04-03T02:25:37.348Z,41.84
2019-04-03T02:26:40.777Z,41.84
2019-04-03T02:27:44.283Z,41.66
2019-04-03T02:28:47.715Z,41.46
2019-04-03T02:29:51.168Z,41.25
2019-04-03T02:30:54.648Z,41.27
2019-04-03T02:31:58.176Z,41.16
2019-04-03T02:33:01.667Z,41.29
2019-04-03T02:34:05.193Z,41.44
2019-04-03T02:35:08.995Z,41.49
2019-04-03T02:36:13.111Z,41.68
2019-04-03T02:37:17.562Z,41.52
2019-04-03T02:38:22.627Z,41.40
2019-04-03T02:39:27.658Z,41.38
2019-04-03T02:40:32.512Z,41.40
2019-04-03T02:41:37.435Z,41.40
2019-04-03T02:42:42.417Z,41.51
2019-04-03T02:43:47.364Z,41.57
2019-04-03T02:44:51.906Z,41.52
2019-04-03T02:45:56.811Z,41.57
2019-04-03T02:47:01.482Z,41.57
2019-04-03T02:48:06.248Z,41.71
2019-04-03T02:49:11.076Z,41.78
2019-04-03T02:50:17.678Z,41.79
2019-04-03T02:51:21.137Z,41.74
2019-04-03T02:52:25.643Z,41.58
2019-04-03T02:53:31.166Z,41.58
2019-04-03T02:54:38.136Z,41.74
2019-04-03T02:55:41.601Z,41.81
2019-04-03T02:56:46.028Z,41.81
2019-04-03T02:57:50.366Z,41.86
2019-04-03T02:58:55.062Z,41.88
2019-04-03T03:00:00.334Z,41.88
2019-04-03T03:01:07.014Z,41.88
2019-04-03T03:02:11.681Z,41.93
2019-04-03T03:03:17.283Z,41.93
2019-04-03T03:04:21.958Z,41.89
2019-04-03T03:05:28.106Z,41.84
2019-04-03T03:06:33.004Z,41.87
2019-04-03T03:07:36.947Z,41.88
2019-04-03T03:08:42.665Z,41.94
2019-04-03T03:09:47.735Z,42.17
2019-04-03T03:10:52.933Z,42.26
2019-04-03T03:11:57.288Z,42.51
2019-04-03T03:13:02.393Z,42.54
2019-04-03T03:14:07.258Z,42.45
2019-04-03T03:15:12.676Z,42.63
2019-04-03T03:16:18.141Z,42.63
2019-04-03T03:17:23.508Z,42.62
2019-04-03T03:18:28.325Z,42.65
2019-04-03T03:19:33.793Z,42.79
2019-04-03T03:20:39.515Z,42.90
2019-04-03T03:21:44.711Z,43.01
2019-04-03T03:22:50.565Z,42.96
2019-04-03T03:23:56.252Z,43.05
2019-04-03T03:25:00.945Z,43.13
2019-04-03T03:26:05.775Z,43.16
2019-04-03T03:27:10.341Z,43.27
2019-04-03T03:28:15.312Z,43.16
2019-04-03T03:29:25.260Z,42.94
2019-04-03T03:30:41.890Z,42.96
2019-04-03T03:31:58.779Z,43.11
2019-04-03T03:32:37.719Z,43.15
2019-04-03T03:33:42.291Z,43.13
2019-04-03T03:34:55.932Z,43.23
2019-04-03T03:35:52.154Z,43.05
2019-04-03T03:37:00.678Z,43.02
2019-04-03T03:38:06.315Z,43.02
2019-04-03T03:39:10.435Z,43.11
2019-04-03T03:40:16.594Z,43.00
2019-04-03T03:41:22.058Z,42.90
2019-04-03T03:42:24.951Z,42.77
2019-04-03T03:43:28.834Z,42.85
2019-04-03T03:44:32.785Z,42.96
2019-04-03T03:45:37.161Z,43.02
2019-04-03T03:46:41.644Z,43.09
2019-04-03T03:47:45.753Z,43.05
2019-04-03T03:48:49.605Z,43.00
2019-04-03T03:49:54.236Z,43.05
2019-04-03T03:50:58.657Z,43.16
2019-04-03T03:52:03.995Z,43.22
2019-04-03T03:53:11.826Z,43.38
2019-04-03T03:54:16.696Z,43.40
2019-04-03T03:55:23.151Z,43.58
2019-04-03T03:56:24.603Z,43.77
2019-04-03T03:57:28.258Z,43.86
2019-04-03T03:58:32.382Z,44.24
2019-04-03T03:59:36.887Z,44.32
2019-04-03T04:00:40.814Z,44.47
2019-04-03T04:01:44.431Z,44.72
2019-04-03T04:02:47.985Z,44.76
2019-04-03T04:03:53.082Z,45.03
2019-04-03T04:04:57.011Z,45.22
2019-04-03T04:06:00.558Z,45.36
2019-04-03T04:07:04.775Z,45.56
2019-04-03T04:08:10.600Z,45.76
2019-04-03T04:09:17.174Z,46.03
2019-04-03T04:10:18.947Z,46.30
2019-04-03T04:11:22.553Z,46.48
2019-04-03T04:12:26.507Z,46.79
2019-04-03T04:13:30.282Z,46.82
2019-04-03T04:14:33.846Z,46.99
2019-04-03T04:15:37.941Z,47.27
2019-04-03T04:16:41.971Z,47.73
2019-04-03T04:17:49.001Z,47.85
2019-04-03T04:18:51.135Z,47.68
2019-04-03T04:19:54.675Z,47.79
2019-04-03T04:20:58.339Z,47.91
2019-04-03T04:22:01.957Z,48.16
2019-04-03T04:23:05.648Z,48.17
2019-04-03T04:24:09.092Z,48.02
2019-04-03T04:25:12.659Z,48.00
2019-04-03T04:26:16.238Z,47.90
2019-04-03T04:27:19.997Z,47.98
2019-04-03T04:28:23.353Z,48.02
2019-04-03T04:29:26.933Z,47.92
2019-04-03T04:30:30.808Z,47.74
2019-04-03T04:31:34.233Z,47.81
2019-04-03T04:32:37.860Z,47.71
2019-04-03T04:33:41.268Z,47.73
2019-04-03T04:34:44.823Z,47.81
2019-04-03T04:35:51.360Z,47.82
2019-04-03T04:36:55.328Z,47.85
2019-04-03T04:37:58.677Z,47.72
2019-04-03T04:39:02.131Z,47.80
2019-04-03T04:40:05.803Z,47.79
2019-04-03T04:41:09.226Z,47.73
2019-04-03T04:42:12.660Z,47.70
2019-04-03T04:43:16.175Z,47.59
2019-04-03T04:44:19.609Z,47.55
2019-04-03T04:45:23.282Z,47.67
2019-04-03T04:46:26.719Z,47.72
2019-04-03T04:47:30.221Z,47.62
2019-04-03T04:48:33.735Z,47.67
2019-04-03T04:49:37.212Z,47.71
2019-04-03T04:50:40.824Z,47.75
2019-04-03T04:51:44.202Z,47.80
2019-04-03T04:52:47.773Z,47.71
2019-04-03T04:53:51.196Z,47.74
2019-04-03T04:54:54.581Z,47.60
2019-04-03T04:55:58.007Z,47.59
2019-04-03T04:57:01.453Z,47.76
2019-04-03T04:58:05.325Z,47.78
2019-04-03T04:59:09.000Z,47.71
2019-04-03T05:00:13.771Z,47.62
2019-04-03T05:01:18.307Z,47.52
2019-04-03T05:02:21.753Z,47.69
2019-04-03T05:03:25.286Z,47.86
2019-04-03T05:04:28.924Z,47.86
2019-04-03T05:05:32.663Z,48.04
2019-04-03T05:06:36.449Z,47.96
2019-04-03T05:07:40.303Z,47.88
2019-04-03T05:08:43.690Z,47.95
2019-04-03T05:09:47.122Z,48.16
2019-04-03T05:10:50.621Z,48.55
2019-04-03T05:11:54.071Z,48.58
2019-04-03T05:12:57.510Z,48.92
2019-04-03T05:14:01.253Z,48.81
2019-04-03T05:15:06.093Z,48.97
2019-04-03T05:16:09.582Z,49.24
2019-04-03T05:17:13.103Z,49.70
2019-04-03T05:18:16.640Z,49.98
2019-04-03T05:19:20.109Z,49.65
2019-04-03T05:20:23.670Z,49.58
2019-04-03T05:21:27.146Z,49.58
2019-04-03T05:22:30.639Z,49.74
2019-04-03T05:23:34.301Z,49.92
2019-04-03T05:24:37.850Z,49.93
2019-04-03T05:25:41.550Z,50.17
2019-04-03T05:26:45.189Z,50.15
2019-04-03T05:27:48.616Z,50.15
2019-04-03T05:28:57.166Z,50.05
2019-04-03T05:29:57.297Z,49.87
2019-04-03T05:31:01.006Z,49.75
2019-04-03T05:32:04.541Z,49.91
2019-04-03T05:33:10.648Z,50.07
2019-04-03T05:34:13.748Z,50.42
2019-04-03T05:35:17.521Z,50.58
2019-04-03T05:36:20.972Z,50.57
2019-04-03T05:37:24.571Z,50.46
2019-04-03T05:38:27.987Z,50.38
2019-04-03T05:39:31.501Z,50.65
2019-04-03T05:40:34.921Z,50.52
2019-04-03T05:41:38.347Z,50.71
2019-04-03T05:42:41.775Z,50.81
2019-04-03T05:43:45.227Z,50.99
2019-04-03T05:44:48.663Z,51.05
2019-04-03T05:45:52.166Z,51.07
2019-04-03T05:46:55.607Z,51.09
2019-04-03T05:47:59.041Z,52.11
2019-04-03T05:49:02.493Z,53.28
2019-04-03T05:50:06.763Z,52.93
2019-04-03T05:51:10.137Z,52.41
2019-04-03T05:52:13.847Z,52.36
2019-04-03T05:53:17.501Z,52.31
2019-04-03T05:54:21.121Z,52.22
2019-04-03T05:55:24.547Z,52.05
2019-04-03T05:56:28.042Z,52.05
2019-04-03T05:57:31.483Z,51.99
2019-04-03T05:58:34.979Z,52.05
2019-04-03T05:59:38.427Z,52.38
2019-04-03T06:00:42.590Z,52.42
2019-04-03T06:01:47.134Z,52.69
2019-04-03T06:02:52.669Z,52.44
2019-04-03T06:03:55.866Z,52.20
2019-04-03T06:04:59.791Z,51.96
2019-04-03T06:06:03.343Z,51.78
2019-04-03T06:07:06.782Z,51.71
2019-04-03T06:08:10.226Z,51.84
2019-04-03T06:09:13.840Z,51.74
2019-04-03T06:10:17.348Z,51.64
2019-04-03T06:11:21.406Z,51.52
2019-04-03T06:12:24.999Z,51.56
2019-04-03T06:13:28.647Z,51.63
2019-04-03T06:14:32.229Z,51.51
2019-04-03T06:15:35.679Z,51.36
2019-04-03T06:16:39.131Z,51.27
2019-04-03T06:17:42.576Z,51.22
2019-04-03T06:18:47.473Z,51.35
2019-04-03T06:19:51.261Z,51.37
2019-04-03T06:20:54.948Z,51.23
2019-04-03T06:21:58.371Z,51.19
2019-04-03T06:23:02.118Z,51.12
2019-04-03T06:24:05.615Z,51.17
2019-04-03T06:25:13.455Z,51.29
2019-04-03T06:26:14.454Z,51.20
2019-04-03T06:27:19.670Z,50.95
2019-04-03T06:28:23.430Z,51.00
2019-04-03T06:29:27.020Z,51.19
2019-04-03T06:30:30.436Z,51.08
2019-04-03T06:31:33.869Z,50.96
2019-04-03T06:32:37.622Z,51.03
2019-04-03T06:33:41.132Z,51.04
2019-04-03T06:34:44.528Z,51.16
2019-04-03T06:35:47.960Z,51.17
2019-04-03T06:36:51.637Z,51.21
2019-04-03T06:37:55.082Z,51.27
2019-04-03T06:38:58.535Z,51.24
2019-04-03T06:40:02.874Z,51.19
2019-04-03T06:41:08.791Z,50.97
2019-04-03T06:42:13.310Z,50.62
2019-04-03T06:43:17.904Z,50.33
2019-04-03T06:44:22.649Z,50.34
2019-04-03T06:45:27.098Z,50.06
2019-04-03T06:46:30.632Z,49.94
2019-04-03T06:47:34.070Z,49.67
2019-04-03T06:48:37.533Z,49.54
2019-04-03T06:49:41.139Z,49.18
2019-04-03T06:50:44.780Z,48.67
2019-04-03T06:51:49.441Z,48.61
2019-04-03T06:52:53.742Z,48.38
2019-04-03T06:53:59.163Z,48.11
2019-04-03T06:55:03.333Z,48.11
2019-04-03T06:56:08.653Z,48.03
2019-04-03T06:57:13.863Z,48.07
2019-04-03T06:58:17.605Z,47.98
2019-04-03T06:59:21.042Z,47.65
2019-04-03T07:00:24.580Z,47.77
2019-04-03T07:01:28.117Z,47.56
2019-04-03T07:02:32.408Z,47.39
2019-04-03T07:03:35.891Z,47.32
2019-04-03T07:04:39.327Z,47.16
2019-04-03T07:05:42.955Z,47.11
2019-04-03T07:06:46.545Z,47.10
2019-04-03T07:07:49.982Z,47.01
2019-04-03T07:08:53.516Z,47.13
2019-04-03T07:09:57.310Z,47.08
2019-04-03T07:11:00.773Z,47.12
2019-04-03T07:12:04.300Z,47.42
2019-04-03T07:13:07.794Z,47.34
2019-04-03T07:14:11.233Z,47.22
2019-04-03T07:15:14.828Z,47.13
2019-04-03T07:16:18.267Z,47.10
2019-04-03T07:17:21.804Z,47.13
2019-04-03T07:18:25.231Z,47.08
2019-04-03T07:19:28.883Z,46.95
2019-04-03T07:20:32.364Z,46.87
2019-04-03T07:21:35.873Z,46.85
2019-04-03T07:22:39.302Z,46.71
2019-04-03T07:23:42.883Z,46.55
2019-04-03T07:24:46.406Z,46.71
2019-04-03T07:25:49.954Z,46.82
2019-04-03T07:26:53.352Z,46.87
2019-04-03T07:27:56.849Z,46.87
2019-04-03T07:29:00.307Z,46.82
2019-04-03T07:30:05.214Z,46.90
2019-04-03T07:31:08.669Z,46.93
2019-04-03T07:32:12.511Z,46.90
2019-04-03T07:33:16.026Z,46.88
2019-04-03T07:34:19.548Z,46.91
2019-04-03T07:35:23.131Z,46.89
2019-04-03T07:36:26.571Z,46.92
2019-04-03T07:37:29.998Z,46.91
2019-04-03T07:38:33.434Z,46.90
2019-04-03T07:39:36.867Z,46.93
2019-04-03T07:40:40.318Z,47.00
2019-04-03T07:41:43.819Z,47.05
2019-04-03T07:42:47.329Z,47.16
2019-04-03T07:43:50.760Z,47.17
2019-04-03T07:44:54.206Z,47.20
2019-04-03T07:45:57.653Z,47.20
2019-04-03T07:47:03.262Z,47.21
2019-04-03T07:48:07.066Z,47.19
2019-04-03T07:49:10.561Z,47.18
2019-04-03T07:50:14.551Z,47.15
2019-04-03T07:51:18.302Z,47.09
2019-04-03T07:52:21.709Z,47.07
2019-04-03T07:53:25.227Z,47.09
2019-04-03T07:54:29.014Z,47.11
2019-04-03T07:55:32.465Z,47.11
2019-04-03T07:56:35.897Z,47.07
2019-04-03T07:57:41.361Z,47.18
2019-04-03T07:58:44.515Z,47.12
2019-04-03T07:59:47.995Z,47.09
2019-04-03T08:00:51.525Z,47.03
2019-04-03T08:01:55.190Z,47.07
2019-04-03T08:02:58.587Z,47.11
2019-04-03T08:04:02.097Z,47.09
2019-04-03T08:05:07.347Z,47.04
2019-04-03T08:06:11.127Z,46.97
2019-04-03T08:07:14.580Z,46.98
2019-04-03T08:08:18.086Z,46.91
2019-04-03T08:09:21.551Z,46.81
2019-04-03T08:10:25.295Z,46.60
2019-04-03T08:11:28.746Z,46.46
2019-04-03T08:12:34.553Z,46.32
2019-04-03T08:13:38.423Z,46.41
2019-04-03T08:14:42.069Z,46.37
2019-04-03T08:15:45.690Z,46.07
2019-04-03T08:16:49.136Z,46.21
2019-04-03T08:17:52.587Z,46.22
2019-04-03T08:18:56.017Z,46.13
2019-04-03T08:19:59.458Z,45.97
2019-04-03T08:21:02.909Z,45.89
2019-04-03T08:22:06.409Z,45.72
2019-04-03T08:23:09.897Z,45.81
2019-04-03T08:24:13.322Z,45.75
2019-04-03T08:25:16.758Z,45.75
2019-04-03T08:26:20.393Z,45.80
2019-04-03T08:27:24.430Z,45.85
2019-04-03T08:28:30.140Z,45.91
2019-04-03T08:29:37.190Z,45.90
2019-04-03T08:30:39.658Z,45.78
2019-04-03T08:31:47.825Z,45.66
2019-04-03T08:32:49.614Z,45.88
2019-04-03T08:33:53.032Z,45.96
2019-04-03T08:34:56.690Z,45.79
2019-04-03T08:36:00.098Z,45.67
2019-04-03T08:37:04.107Z,45.54
2019-04-03T08:38:07.548Z,45.29
2019-04-03T08:39:11.054Z,45.33
2019-04-03T08:40:14.733Z,45.37
2019-04-03T08:41:18.181Z,45.32
2019-04-03T08:42:21.617Z,45.54
2019-04-03T08:43:25.069Z,45.49
2019-04-03T08:44:28.579Z,45.28
2019-04-03T08:45:32.014Z,45.22
2019-04-03T08:46:35.464Z,45.27
2019-04-03T08:47:39.303Z,45.18
2019-04-03T08:48:43.001Z,45.27
2019-04-03T08:49:46.485Z,45.04
2019-04-03T08:50:49.888Z,44.93
2019-04-03T08:51:53.515Z,44.96
2019-04-03T08:52:56.927Z,44.79
2019-04-03T08:54:00.368Z,44.88
2019-04-03T08:55:04.919Z,44.90
2019-04-03T08:56:08.370Z,44.76
2019-04-03T08:57:11.891Z,44.65
2019-04-03T08:58:15.407Z,44.56
2019-04-03T08:59:18.892Z,44.59
2019-04-03T09:00:22.546Z,44.73
2019-04-03T09:01:26.043Z,44.74
2019-04-03T09:02:29.625Z,44.71
2019-04-03T09:03:33.052Z,44.61
2019-04-03T09:04:36.523Z,44.53
2019-04-03T09:05:39.995Z,44.44
2019-04-03T09:06:43.484Z,44.17
2019-04-03T09:07:46.939Z,44.04
2019-04-03T09:08:50.381Z,43.86
2019-04-03T09:09:53.814Z,43.83
2019-04-03T09:10:57.274Z,43.62
2019-04-03T09:12:00.786Z,43.60
2019-04-03T09:13:16.276Z,43.17
2019-04-03T09:14:09.513Z,42.94
2019-04-03T09:15:13.508Z,42.49
2019-04-03T09:16:16.920Z,42.71
2019-04-03T09:17:20.431Z,42.97
2019-04-03T09:18:23.976Z,42.77
2019-04-03T09:19:27.469Z,42.78
2019-04-03T09:20:31.044Z,42.67
2019-04-03T09:21:34.477Z,42.72
2019-04-03T09:22:37.994Z,42.67
2019-04-03T09:23:41.540Z,42.39
2019-04-03T09:24:45.053Z,42.38
2019-04-03T09:25:48.545Z,42.42
2019-04-03T09:26:52.007Z,42.38
2019-04-03T09:27:55.449Z,42.38
2019-04-03T09:28:58.926Z,42.55
2019-04-03T09:30:02.542Z,42.08
2019-04-03T09:31:06.182Z,42.15
2019-04-03T09:32:09.678Z,41.37
2019-04-03T09:33:13.436Z,41.26
2019-04-03T09:34:16.884Z,41.74
2019-04-03T09:35:20.393Z,41.78
2019-04-03T09:36:23.915Z,41.74
2019-04-03T09:37:27.347Z,41.80
2019-04-03T09:38:30.952Z,41.87
2019-04-03T09:39:34.437Z,41.80
2019-04-03T09:40:38.303Z,41.11
2019-04-03T09:41:41.756Z,41.12
2019-04-03T09:42:45.187Z,41.00
2019-04-03T09:43:48.981Z,40.91
2019-04-03T09:44:53.672Z,40.84
2019-04-03T09:46:00.288Z,40.95
2019-04-03T09:47:03.787Z,40.92
2019-04-03T09:48:07.713Z,41.05
2019-04-03T09:49:11.260Z,41.11
2019-04-03T09:50:17.207Z,40.87
2019-04-03T09:51:22.810Z,40.91
2019-04-03T09:52:38.273Z,40.60
2019-04-03T09:53:31.020Z,40.76
2019-04-03T09:54:34.481Z,40.61
2019-04-03T09:55:38.289Z,40.31
2019-04-03T09:56:57.191Z,39.79
2019-04-03T09:57:46.958Z,38.95
2019-04-03T09:58:50.397Z,39.11
2019-04-03T09:59:53.855Z,39.35
2019-04-03T10:00:57.422Z,39.54
2019-04-03T10:02:01.887Z,39.36
2019-04-03T10:03:06.039Z,39.46
2019-04-03T10:04:09.534Z,39.42
2019-04-03T10:05:14.576Z,39.22
2019-04-03T10:06:18.021Z,39.23
2019-04-03T10:07:21.820Z,39.22
2019-04-03T10:08:25.302Z,38.50
2019-04-03T10:09:28.750Z,38.49
2019-04-03T10:10:32.539Z,37.88
2019-04-03T10:11:38.423Z,38.04
2019-04-03T10:12:43.024Z,37.60
2019-04-03T10:13:46.931Z,37.68
2019-04-03T10:14:50.482Z,37.76
2019-04-03T10:15:53.912Z,37.00
2019-04-03T10:16:57.691Z,37.18
2019-04-03T10:18:01.197Z,37.35
2019-04-03T10:19:04.882Z,37.25
2019-04-03T10:20:09.453Z,37.43
2019-04-03T10:21:12.892Z,37.61
2019-04-03T10:22:16.320Z,36.86
2019-04-03T10:23:20.069Z,37.18
2019-04-03T10:24:23.462Z,37.14
2019-04-03T10:25:26.916Z,37.13
2019-04-03T10:26:31.345Z,37.01
2019-04-03T10:27:35.714Z,37.09
2019-04-03T10:28:42.022Z,36.42
2019-04-03T10:29:44.309Z,36.15
2019-04-03T10:30:47.801Z,36.32
2019-04-03T10:31:51.225Z,35.85
2019-04-03T10:32:54.779Z,35.98
2019-04-03T10:33:58.171Z,35.80
2019-04-03T10:35:01.614Z,35.90
2019-04-03T10:36:05.290Z,36.32
2019-04-03T10:37:08.786Z,36.09
2019-04-03T10:38:12.288Z,35.70
2019-04-03T10:39:16.290Z,35.53
2019-04-03T10:40:20.103Z,34.87
2019-04-03T10:41:24.023Z,34.67
2019-04-03T10:42:27.405Z,34.67
2019-04-03T10:43:32.436Z,34.60
2019-04-03T10:44:35.865Z,34.56
2019-04-03T10:45:39.347Z,34.49
2019-04-03T10:46:42.848Z,34.76
2019-04-03T10:47:46.284Z,34.09
2019-04-03T10:48:49.783Z,34.00
2019-04-03T10:49:53.263Z,34.27
2019-04-03T10:50:56.700Z,34.05
2019-04-03T10:52:00.198Z,34.11
2019-04-03T10:53:03.639Z,34.00
2019-04-03T10:54:07.134Z,33.67
2019-04-03T10:55:11.237Z,34.02
2019-04-03T10:56:14.644Z,34.03
2019-04-03T10:57:18.086Z,34.15
2019-04-03T10:58:21.638Z,34.44
2019-04-03T10:59:25.145Z,34.73
2019-04-03T11:00:29.423Z,34.47
2019-04-03T11:01:33.436Z,34.22
2019-04-03T11:02:36.967Z,34.57
2019-04-03T11:03:40.663Z,35.12
2019-04-03T11:04:44.161Z,34.95
2019-04-03T11:05:47.903Z,33.83
2019-04-03T11:06:51.331Z,32.83
2019-04-03T11:07:54.823Z,32.68
2019-04-03T11:08:58.319Z,32.01
2019-04-03T11:10:01.774Z,31.89
2019-04-03T11:11:05.257Z,30.94
2019-04-03T11:12:10.189Z,30.99
2019-04-03T11:13:14.386Z,31.25
2019-04-03T11:14:17.927Z,30.08
2019-04-03T11:15:21.437Z,30.04
2019-04-03T11:16:25.297Z,30.08
2019-04-03T11:17:28.777Z,30.07
2019-04-03T11:18:32.478Z,30.44
2019-04-03T11:19:37.421Z,31.20
2019-04-03T11:20:41.510Z,31.54
2019-04-03T11:21:45.524Z,31.64
2019-04-03T11:22:49.076Z,31.70
2019-04-03T11:23:52.639Z,32.02
2019-04-03T11:24:56.306Z,31.98
2019-04-03T11:25:59.878Z,32.10
2019-04-03T11:27:03.713Z,32.12
2019-04-03T11:28:07.279Z,32.06
2019-04-03T11:29:10.976Z,32.26
2019-04-03T11:30:19.928Z,32.21
2019-04-03T11:31:27.431Z,31.75
2019-04-03T11:32:27.272Z,30.84
2019-04-03T11:33:30.815Z,30.68
2019-04-03T11:34:34.187Z,29.63
2019-04-03T11:35:37.731Z,29.32
2019-04-03T11:36:41.724Z,29.16
2019-04-03T11:37:45.143Z,27.72
2019-04-03T11:38:48.885Z,27.77
2019-04-03T11:40:02.352Z,27.97
2019-04-03T11:40:57.531Z,27.02
2019-04-03T11:42:00.999Z,27.42
2019-04-03T11:43:04.570Z,27.11
2019-04-03T11:44:08.313Z,27.27
2019-04-03T11:45:12.663Z,27.63
2019-04-03T11:46:16.080Z,27.19
2019-04-03T11:47:19.584Z,27.16
2019-04-03T11:48:24.405Z,27.69
2019-04-03T11:49:28.453Z,27.50
2019-04-03T11:50:32.089Z,27.53
2019-04-03T11:51:36.180Z,26.86
2019-04-03T11:52:39.986Z,27.00
2019-04-03T11:53:45.486Z,26.67
2019-04-03T11:54:48.605Z,26.41
2019-04-03T11:55:52.196Z,26.23
2019-04-03T11:56:56.624Z,26.51
2019-04-03T11:58:00.699Z,26.37
2019-04-03T11:59:04.198Z,26.45
2019-04-03T12:00:11.779Z,25.90
2019-04-03T12:01:16.816Z,26.13
2019-04-03T12:02:21.134Z,25.60
2019-04-03T12:03:24.580Z,25.83
2019-04-03T12:04:28.116Z,26.28
2019-04-03T12:05:31.661Z,26.17
2019-04-03T12:06:35.339Z,26.07
2019-04-03T12:07:38.781Z,25.60
2019-04-03T12:08:44.575Z,25.28
2019-04-03T12:09:47.441Z,25.38
2019-04-03T12:10:51.155Z,25.35
2019-04-03T12:11:55.512Z,25.28
2019-04-03T12:12:59.275Z,25.19
2019-04-03T12:14:02.814Z,25.08
2019-04-03T12:15:09.711Z,25.02
2019-04-03T12:16:13.170Z,24.77
2019-04-03T12:17:16.901Z,24.75
2019-04-03T12:18:20.706Z,24.40
2019-04-03T12:19:24.331Z,24.53
2019-04-03T12:20:27.823Z,24.33
2019-04-03T12:21:31.341Z,24.54
2019-04-03T12:22:35.159Z,24.05
2019-04-03T12:23:39.428Z,23.80
2019-04-03T12:24:43.229Z,23.60
2019-04-03T12:25:46.925Z,23.41
2019-04-03T12:26:51.502Z,23.46
2019-04-03T12:27:55.713Z,23.46
2019-04-03T12:28:59.407Z,22.60
2019-04-03T12:30:03.191Z,22.72
2019-04-03T12:31:06.636Z,22.63
2019-04-03T12:32:10.441Z,22.90
2019-04-03T12:33:13.954Z,23.07
2019-04-03T12:34:17.381Z,22.93
2019-04-03T12:35:20.822Z,23.01
2019-04-03T12:36:26.884Z,22.02
2019-04-03T12:37:29.441Z,21.64
2019-04-03T12:38:33.047Z,21.33
2019-04-03T12:39:36.629Z,21.40
2019-04-03T12:40:40.098Z,21.29
2019-04-03T12:41:44.122Z,20.98
2019-04-03T12:42:47.885Z,20.71
2019-04-03T12:43:51.350Z,20.47
2019-04-03T12:44:55.346Z,20.42
2019-04-03T12:46:02.377Z,20.29
2019-04-03T12:47:05.635Z,20.13
2019-04-03T12:48:10.093Z,19.98
2019-04-03T12:49:13.840Z,19.24
2019-04-03T12:50:17.469Z,19.66
2019-04-03T12:51:20.984Z,19.53
2019-04-03T12:52:24.436Z,19.95
2019-04-03T12:53:27.866Z,20.12
2019-04-03T12:54:31.314Z,20.39
2019-04-03T12:55:34.952Z,20.51
2019-04-03T12:56:38.376Z,20.28
2019-04-03T12:57:41.819Z,20.40
2019-04-03T12:58:45.267Z,19.96
2019-04-03T12:59:48.677Z,19.37
2019-04-03T13:00:52.239Z,18.96
2019-04-03T13:01:55.624Z,18.72
2019-04-03T13:02:59.210Z,18.12
2019-04-03T13:04:02.705Z,17.50
2019-04-03T13:05:07.893Z,17.34
2019-04-03T13:06:11.279Z,16.86
2019-04-03T13:07:15.150Z,17.66
2019-04-03T13:08:20.996Z,17.87
2019-04-03T13:09:23.785Z,18.12
2019-04-03T13:10:39.211Z,18.09
2019-04-03T13:11:33.552Z,18.12
2019-04-03T13:12:37.499Z,18.31
2019-04-03T13:13:41.288Z,18.59
2019-04-03T13:14:45.138Z,18.76
2019-04-03T13:15:48.585Z,18.85
2019-04-03T13:16:52.010Z,18.70
2019-04-03T13:17:55.465Z,18.70
2019-04-03T13:18:58.972Z,18.77
2019-04-03T13:20:05.598Z,18.73
2019-04-03T13:21:08.723Z,18.66
2019-04-03T13:22:12.750Z,18.77
2019-04-03T13:23:16.205Z,18.94
2019-04-03T13:24:19.637Z,19.03
2019-04-03T13:25:23.065Z,19.02
2019-04-03T13:26:26.496Z,19.37
2019-04-03T13:27:31.779Z,19.09
2019-04-03T13:28:36.758Z,18.82
2019-04-03T13:29:40.856Z,18.83
2019-04-03T13:30:44.853Z,19.06
2019-04-03T13:31:48.571Z,18.97
2019-04-03T13:32:59.843Z,18.86
2019-04-03T13:34:00.164Z,19.16
2019-04-03T13:35:05.892Z,19.45
2019-04-03T13:36:09.687Z,19.45
2019-04-03T13:37:13.212Z,19.61
2019-04-03T13:38:16.641Z,19.74
2019-04-03T13:39:20.096Z,19.58
2019-04-03T13:40:23.574Z,19.60
2019-04-03T13:41:26.999Z,19.67
2019-04-03T13:42:31.644Z,19.87
2019-04-03T13:43:35.750Z,19.74